Time;durP1;ratioP1;P1;durP2;ratioP2;P2;SDS_P1;SDS_P2;PMS_P1;PMS_P2;Temp;Humidity;BMP_temperature;BMP_pressure;BME280_temperature;BME280_humidity;BME280_pressure;Samples;Min_cycle;Max_cycle;Signal;HPM_P1;HPM_P2
2023/03/17 00:01:43;;;;;;;5.50;5.20;;;;;;;-141.22;100.00;65034.22;4952791;28;20530;-46
2023/03/17 00:04:13;;;;;;;5.40;4.90;;;;;;;-141.22;100.00;65034.22;4952747;28;20485;-46
2023/03/17 00:06:41;;;;;;;5.50;5.10;;;;;;;-141.22;100.00;65034.22;4952371;28;21107;-48
2023/03/17 00:09:13;;;;;;;6.10;5.57;;;;;;;-141.22;100.00;65034.22;4952913;28;20491;-46
2023/03/17 00:11:41;;;;;;;5.37;5.00;;;;;;;-141.22;100.00;65034.22;4952715;28;20861;-48
2023/03/17 00:14:09;;;;;;;5.83;5.27;;;;;;;-141.22;100.00;65034.22;4953332;28;20436;-51
2023/03/17 00:16:41;;;;;;;5.03;4.73;;;;;;;-141.22;100.00;65034.22;4952412;28;20479;-48
2023/03/17 00:19:16;;;;;;;4.87;4.57;;;;;;;-141.22;100.00;65034.22;4952974;28;20550;-46
2023/03/17 00:21:44;;;;;;;4.93;4.63;;;;;;;-141.22;100.00;65034.22;4952856;28;20446;-45
2023/03/17 00:24:12;;;;;;;5.83;5.43;;;;;;;-141.22;100.00;65034.22;4952820;28;20562;-45
2023/03/17 00:26:42;;;;;;;6.50;5.03;;;;;;;-141.22;100.00;65034.22;4952336;28;20466;-48
2023/03/17 00:29:10;;;;;;;6.00;5.43;;;;;;;-141.22;100.00;65034.22;4952765;28;20522;-49
2023/03/17 00:31:38;;;;;;;5.47;5.07;;;;;;;-141.22;100.00;65034.22;4952591;28;20806;-47
2023/03/17 00:34:07;;;;;;;5.83;5.40;;;;;;;-141.22;100.00;65034.22;4952904;28;20487;-45
2023/03/17 00:36:36;;;;;;;5.23;5.03;;;;;;;-141.22;100.00;65034.22;4952487;28;20464;-45
2023/03/17 00:39:12;;;;;;;5.50;5.20;;;;;;;-141.22;100.00;65034.22;4952698;28;20460;-48
2023/03/17 00:41:38;;;;;;;4.90;4.50;;;;;;;-141.22;100.00;65034.22;4952567;28;20834;-48
2023/03/17 00:44:06;;;;;;;4.33;3.97;;;;;;;-141.22;100.00;65034.22;4952700;28;20471;-45
2023/03/17 00:46:36;;;;;;;4.23;4.03;;;;;;;-141.22;100.00;65034.22;4952052;28;20463;-48
2023/03/17 00:49:14;;;;;;;5.93;5.53;;;;;;;-141.22;100.00;65034.22;4952667;28;20448;-49
2023/03/17 00:51:44;;;;;;;4.93;4.53;;;;;;;-141.22;100.00;65034.22;4952776;28;20427;-46
2023/03/17 00:54:13;;;;;;;5.80;5.40;;;;;;;-141.22;100.00;65034.22;4953078;28;20447;-46
2023/03/17 00:56:42;;;;;;;4.80;4.50;;;;;;;-141.22;100.00;65034.22;4954335;28;20463;-46
2023/03/17 00:59:19;;;;;;;4.90;4.50;;;;;;;-141.22;100.00;65034.22;4956020;28;20463;-49
2023/03/17 01:01:47;;;;;;;5.20;4.90;;;;;;;-141.22;100.00;65034.22;4955642;28;20940;-50
2023/03/17 01:04:15;;;;;;;4.80;4.60;;;;;;;-141.22;100.00;65034.22;4955672;28;20832;-45
2023/03/17 01:06:45;;;;;;;5.00;4.60;;;;;;;-141.22;100.00;65034.22;4955348;28;21236;-46
2023/03/17 01:09:15;;;;;;;4.50;4.20;;;;;;;-141.22;100.00;65034.22;4955856;28;20451;-48
2023/03/17 01:11:43;;;;;;;5.20;4.87;;;;;;;-141.22;100.00;65034.22;4955841;28;20941;-47
2023/03/17 01:14:12;;;;;;;4.97;4.63;;;;;;;-141.22;100.00;65034.22;4955995;28;20475;-48
2023/03/17 01:16:40;;;;;;;4.90;4.70;;;;;;;-141.22;100.00;65034.22;4955063;28;20468;-46
2023/03/17 01:19:10;;;;;;;4.77;4.47;;;;;;;-141.22;100.00;65034.22;4955198;28;20550;-46
2023/03/17 01:21:38;;;;;;;5.57;5.10;;;;;;;-141.22;100.00;65034.22;4955749;28;20440;-46
2023/03/17 01:24:08;;;;;;;5.00;4.70;;;;;;;-141.22;100.00;65034.22;4955811;28;20431;-45
2023/03/17 01:26:36;;;;;;;5.57;5.17;;;;;;;-141.22;100.00;65034.22;4955211;28;20471;-45
2023/03/17 01:29:05;;;;;;;4.50;4.20;;;;;;;-141.22;100.00;65034.22;4955625;28;20873;-47
2023/03/17 01:31:32;;;;;;;8.07;5.17;;;;;;;-141.22;100.00;65034.22;4955246;28;21113;-46
2023/03/17 01:34:01;;;;;;;4.70;4.40;;;;;;;-141.22;100.00;65034.22;4955344;28;20801;-45
2023/03/17 01:36:29;;;;;;;5.43;5.03;;;;;;;-141.22;100.00;65034.22;4955376;28;20463;-49
2023/03/17 01:38:57;;;;;;;4.97;4.70;;;;;;;-141.22;100.00;65034.22;4955336;28;20992;-48
2023/03/17 01:41:26;;;;;;;5.73;5.33;;;;;;;-141.22;100.00;65034.22;4955266;28;20435;-47
2023/03/17 01:43:54;;;;;;;4.67;4.40;;;;;;;-141.22;100.00;65034.22;4955421;28;20786;-46
2023/03/17 01:46:28;;;;;;;5.57;5.30;;;;;;;-141.22;100.00;65034.22;4955132;28;20464;-48
2023/03/17 01:49:11;;;;;;;5.03;4.73;;;;;;;-141.22;100.00;65034.22;4954901;28;20459;-45
2023/03/17 01:51:46;;;;;;;4.87;4.57;;;;;;;-141.22;100.00;65034.22;4955227;28;20428;-48
2023/03/17 01:54:18;;;;;;;5.07;4.70;;;;;;;-141.22;100.00;65034.22;4954845;28;20981;-46
2023/03/17 01:56:50;;;;;;;6.20;5.10;;;;;;;-141.22;100.00;65034.22;4954795;28;20849;-47
2023/03/17 01:59:22;;;;;;;5.50;5.13;;;;;;;-141.22;100.00;65034.22;4955350;28;20558;-45
2023/03/17 02:01:54;;;;;;;5.83;5.33;;;;;;;-141.22;100.00;65034.22;4954878;28;20518;-49
2023/03/17 02:04:22;;;;;;;6.07;5.67;;;;;;;-141.22;100.00;65034.22;4955205;28;20521;-49
2023/03/17 02:06:51;;;;;;;6.00;5.37;;;;;;;-141.22;100.00;65034.22;4954214;28;20475;-48
2023/03/17 02:09:26;;;;;;;7.03;6.30;;;;;;;-141.22;100.00;65034.22;4954949;28;20514;-46
2023/03/17 02:11:58;;;;;;;5.60;5.40;;;;;;;-141.22;100.00;65034.22;4955111;28;20798;-46
2023/03/17 02:14:26;;;;;;;5.70;5.30;;;;;;;-141.22;100.00;65034.22;4955087;28;20516;-52
2023/03/17 02:16:54;;;;;;;5.70;5.40;;;;;;;-141.22;100.00;65034.22;4954228;28;20455;-51
2023/03/17 02:19:22;;;;;;;6.50;5.90;;;;;;;-141.22;100.00;65034.22;4954331;28;20507;-46
2023/03/17 02:21:54;;;;;;;6.27;5.77;;;;;;;-141.22;100.00;65034.22;4954914;28;20432;-48
2023/03/17 02:24:30;;;;;;;5.73;5.40;;;;;;;-141.22;100.00;65034.22;4955070;28;20428;-46
2023/03/17 02:27:03;;;;;;;7.70;6.40;;;;;;;-141.22;100.00;65034.22;4954365;28;20456;-45
2023/03/17 02:29:33;;;;;;;5.40;5.13;;;;;;;-141.22;100.00;65034.22;4954341;28;20447;-46
2023/03/17 02:32:01;;;;;;;5.90;5.60;;;;;;;-141.22;100.00;65034.22;4954199;28;20502;-46
2023/03/17 02:34:30;;;;;;;7.00;5.97;;;;;;;-141.22;100.00;65034.22;4954125;28;20432;-48
2023/03/17 02:36:59;;;;;;;6.63;6.20;;;;;;;-141.22;100.00;65034.22;4954055;28;20471;-48
2023/03/17 02:39:27;;;;;;;6.07;5.70;;;;;;;-141.22;100.00;65034.22;4954520;28;20546;-49
2023/03/17 02:41:54;;;;;;;8.63;6.03;;;;;;;-141.22;100.00;65034.22;4953975;28;20490;-48
2023/03/17 02:44:22;;;;;;;6.03;5.53;;;;;;;-141.22;100.00;65034.22;4954231;28;20491;-45
2023/03/17 02:46:50;;;;;;;5.87;5.50;;;;;;;-141.22;100.00;65034.22;4953277;28;20475;-46
2023/03/17 02:49:19;;;;;;;6.70;5.30;;;;;;;-141.22;100.00;65034.22;4954094;28;20452;-47
2023/03/17 02:51:47;;;;;;;5.93;5.63;;;;;;;-141.22;100.00;65034.22;4953951;28;20439;-45
2023/03/17 02:54:16;;;;;;;5.63;5.40;;;;;;;-141.22;100.00;65034.22;4954187;28;20543;-47
2023/03/17 02:56:43;;;;;;;6.60;6.20;;;;;;;-141.22;100.00;65034.22;4953108;28;20522;-47
2023/03/17 02:59:11;;;;;;;8.57;7.80;;;;;;;-141.22;100.00;65034.22;4953301;28;20475;-47
2023/03/17 03:01:39;;;;;;;6.67;6.30;;;;;;;-141.22;100.00;65034.22;4954141;28;20428;-47
2023/03/17 03:04:09;;;;;;;5.60;5.40;;;;;;;-141.22;100.00;65034.22;4954028;28;20442;-45
2023/03/17 03:06:38;;;;;;;7.10;5.70;;;;;;;-141.22;100.00;65034.22;4953316;28;20464;-47
2023/03/17 03:09:06;;;;;;;6.70;6.30;;;;;;;-141.22;100.00;65034.22;4953986;28;20503;-49
2023/03/17 03:11:35;;;;;;;6.00;5.70;;;;;;;-141.22;100.00;65034.22;4953645;28;21005;-50
2023/03/17 03:14:03;;;;;;;5.97;5.67;;;;;;;-141.22;100.00;65034.22;4953986;28;20431;-46
2023/03/17 03:16:31;;;;;;;5.87;5.53;;;;;;;-141.22;100.00;65034.22;4953678;28;20467;-51
2023/03/17 03:18:59;;;;;;;6.53;6.13;;;;;;;-141.22;100.00;65034.22;4952844;28;20981;-46
2023/03/17 03:21:27;;;;;;;5.80;5.60;;;;;;;-141.22;100.00;65034.22;4953481;28;20941;-47
2023/03/17 03:23:55;;;;;;;5.83;5.43;;;;;;;-141.22;100.00;65034.22;4953618;28;20447;-46
2023/03/17 03:26:23;;;;;;;6.37;6.10;;;;;;;-141.22;100.00;65034.22;4953215;28;20889;-46
2023/03/17 03:28:52;;;;;;;7.07;6.47;;;;;;;-141.22;100.00;65034.22;4953769;28;20551;-47
2023/03/17 03:31:20;;;;;;;6.37;5.87;;;;;;;-141.22;100.00;65034.22;4953386;28;20439;-47
2023/03/17 03:33:48;;;;;;;7.53;6.80;;;;;;;-141.22;100.00;65034.22;4953486;28;20442;-47
2023/03/17 03:36:16;;;;;;;6.33;6.03;;;;;;;-141.22;100.00;65034.22;4952949;28;20463;-48
2023/03/17 03:38:43;;;;;;;7.40;6.70;;;;;;;-141.22;100.00;65034.22;4953382;28;20460;-46
2023/03/17 03:41:11;;;;;;;6.00;5.70;;;;;;;-141.22;100.00;65034.22;4953474;28;20491;-46
2023/03/17 03:43:39;;;;;;;6.23;5.83;;;;;;;-141.22;100.00;65034.22;4953198;28;20436;-46
2023/03/17 03:46:09;;;;;;;6.00;5.70;;;;;;;-141.22;100.00;65034.22;4952440;28;20847;-45
2023/03/17 03:48:36;;;;;;;6.27;5.77;;;;;;;-141.22;100.00;65034.22;4952991;28;20475;-47
2023/03/17 03:51:04;;;;;;;7.00;6.50;;;;;;;-141.22;100.00;65034.22;4952972;28;20814;-45
2023/03/17 03:53:32;;;;;;;6.77;6.40;;;;;;;-141.22;100.00;65034.22;4953042;28;20442;-48
2023/03/17 03:56:00;;;;;;;6.13;5.83;;;;;;;-141.22;100.00;65034.22;4952219;28;20550;-45
2023/03/17 03:58:28;;;;;;;5.93;5.63;;;;;;;-141.22;100.00;65034.22;4952903;28;20559;-51
2023/03/17 04:00:56;;;;;;;6.80;6.30;;;;;;;-141.22;100.00;65034.22;4952769;28;21061;-46
2023/03/17 04:03:25;;;;;;;6.47;5.87;;;;;;;-141.22;100.00;65034.22;4952518;28;20964;-45
2023/03/17 04:05:53;;;;;;;7.13;6.53;;;;;;;-141.22;100.00;65034.22;4952349;28;21000;-45
2023/03/17 04:08:21;;;;;;;6.67;6.30;;;;;;;-141.22;100.00;65034.22;4952875;28;20463;-47
2023/03/17 04:10:48;;;;;;;7.40;6.07;;;;;;;-141.22;100.00;65034.22;4952859;28;20933;-47
2023/03/17 04:13:16;;;;;;;7.00;6.60;;;;;;;-141.22;100.00;65034.22;4951868;28;20444;-46
2023/03/17 04:15:44;;;;;;;6.33;6.00;;;;;;;-141.22;100.00;65034.22;4951905;28;20460;-45
2023/03/17 04:18:12;;;;;;;6.80;6.50;;;;;;;-141.22;100.00;65034.22;4952253;28;20502;-47
2023/03/17 04:20:41;;;;;;;6.77;6.23;;;;;;;-141.22;100.00;65034.22;4952636;28;20940;-51
2023/03/17 04:23:09;;;;;;;7.73;6.93;;;;;;;-141.22;100.00;65034.22;4951734;28;20431;-45
2023/03/17 04:25:36;;;;;;;7.27;6.77;;;;;;;-141.22;100.00;65034.22;4951405;28;20791;-48
2023/03/17 04:28:05;;;;;;;7.23;6.83;;;;;;;-141.22;100.00;65034.22;4952900;28;20455;-52
2023/03/17 04:30:33;;;;;;;7.60;7.20;;;;;;;-141.22;100.00;65034.22;4954875;28;20523;-49
2023/03/17 04:33:00;;;;;;;7.30;6.60;;;;;;;-141.22;100.00;65034.22;4956551;28;20494;-46
2023/03/17 04:35:28;;;;;;;7.03;6.63;;;;;;;-141.22;100.00;65034.22;4956937;28;20435;-45
2023/03/17 04:37:57;;;;;;;6.37;5.93;;;;;;;-141.22;100.00;65034.22;4950444;28;20471;-44
2023/03/17 04:40:26;;;;;;;7.83;7.33;;;;;;;-141.22;100.00;65034.22;4956576;28;20440;-44
2023/03/17 04:42:54;;;;;;;7.80;7.17;;;;;;;-141.22;100.00;65034.22;4956332;28;20471;-46
2023/03/17 04:45:21;;;;;;;7.00;6.53;;;;;;;-141.22;100.00;65034.22;4956151;28;20443;-44
2023/03/17 04:47:50;;;;;;;6.00;5.60;;;;;;;-141.22;100.00;65034.22;4950848;28;20498;-44
2023/03/17 04:50:18;;;;;;;6.20;5.90;;;;;;;-141.22;100.00;65034.22;4956735;28;20435;-47
2023/03/17 04:52:45;;;;;;;7.13;6.10;;;;;;;-141.22;100.00;65034.22;4956477;28;20442;-48
2023/03/17 04:55:15;;;;;;;7.00;6.50;;;;;;;-141.22;100.00;65034.22;4956567;28;20424;-47
2023/03/17 04:57:43;;;;;;;7.50;7.00;;;;;;;-141.22;100.00;65034.22;4955336;28;20466;-45
2023/03/17 05:00:12;;;;;;;8.23;7.83;;;;;;;-141.22;100.00;65034.22;4956278;28;20461;-44
2023/03/17 05:02:39;;;;;;;6.73;6.43;;;;;;;-141.22;100.00;65034.22;4955864;28;20444;-45
2023/03/17 05:05:08;;;;;;;7.30;6.90;;;;;;;-141.22;100.00;65034.22;4955921;28;20450;-48
2023/03/17 05:07:36;;;;;;;6.90;6.60;;;;;;;-141.22;100.00;65034.22;4955039;28;20467;-47
2023/03/17 05:10:05;;;;;;;6.67;6.27;;;;;;;-141.22;100.00;65034.22;4955974;28;20449;-49
2023/03/17 05:12:34;;;;;;;6.70;6.40;;;;;;;-141.22;100.00;65034.22;4955331;28;20435;-47
2023/03/17 05:15:04;;;;;;;6.70;6.30;;;;;;;-141.22;100.00;65034.22;4955302;28;20436;-52
2023/03/17 05:17:31;;;;;;;6.63;6.23;;;;;;;-141.22;100.00;65034.22;4953777;28;20467;-46
2023/03/17 05:19:59;;;;;;;7.07;6.60;;;;;;;-141.22;100.00;65034.22;4955418;28;20981;-48
2023/03/17 05:22:27;;;;;;;6.30;6.00;;;;;;;-141.22;100.00;65034.22;4955187;28;20438;-47
2023/03/17 05:24:54;;;;;;;6.10;5.70;;;;;;;-141.22;100.00;65034.22;4955493;28;20843;-47
2023/03/17 05:27:23;;;;;;;6.90;6.50;;;;;;;-141.22;100.00;65034.22;4955154;28;20471;-47
2023/03/17 05:29:52;;;;;;;7.67;7.03;;;;;;;-141.22;100.00;65034.22;4955318;28;20487;-50
2023/03/17 05:32:20;;;;;;;7.00;6.70;;;;;;;-141.22;100.00;65034.22;4955606;28;20435;-46
2023/03/17 05:34:48;;;;;;;7.20;6.70;;;;;;;-141.22;100.00;65034.22;4955557;28;20456;-49
2023/03/17 05:37:16;;;;;;;6.37;5.97;;;;;;;-141.22;100.00;65034.22;4954734;28;21045;-45
2023/03/17 05:39:44;;;;;;;7.00;6.53;;;;;;;-141.22;100.00;65034.22;4955486;28;20456;-46
2023/03/17 05:42:11;;;;;;;9.53;7.90;;;;;;;-141.22;100.00;65034.22;4954102;28;20452;-47
2023/03/17 05:44:39;;;;;;;6.10;5.80;;;;;;;-141.22;100.00;65034.22;4955234;28;20431;-45
2023/03/17 05:47:08;;;;;;;6.87;6.47;;;;;;;-141.22;100.00;65034.22;4953300;28;20471;-47
2023/03/17 05:49:36;;;;;;;6.60;6.20;;;;;;;-141.22;100.00;65034.22;4955298;28;20456;-48
2023/03/17 05:52:04;;;;;;;6.67;6.20;;;;;;;-141.22;100.00;65034.22;4955643;28;20435;-47
2023/03/17 05:54:31;;;;;;;7.47;6.97;;;;;;;-141.22;100.00;65034.22;4955291;28;20842;-47
2023/03/17 05:56:59;;;;;;;8.43;7.80;;;;;;;-141.22;100.00;65034.22;4954382;28;20455;-46
2023/03/17 05:59:27;;;;;;;7.30;6.80;;;;;;;-141.22;100.00;65034.22;4954841;28;20474;-47
2023/03/17 06:01:55;;;;;;;7.70;7.10;;;;;;;-141.22;100.00;65034.22;4954810;28;20439;-47
2023/03/17 06:04:25;;;;;;;7.70;7.17;;;;;;;-141.22;100.00;65034.22;4955085;28;20446;-48
2023/03/17 06:06:52;;;;;;;8.60;7.83;;;;;;;-141.22;100.00;65034.22;4954608;28;20557;-45
2023/03/17 06:09:20;;;;;;;7.67;7.07;;;;;;;-141.22;100.00;65034.22;4955637;28;20460;-47
2023/03/17 06:11:48;;;;;;;7.83;7.23;;;;;;;-141.22;100.00;65034.22;4954884;28;20486;-50
2023/03/17 06:14:15;;;;;;;8.50;7.90;;;;;;;-141.22;100.00;65034.22;4954816;28;20963;-47
2023/03/17 06:16:43;;;;;;;7.70;7.23;;;;;;;-141.22;100.00;65034.22;4954830;28;20451;-47
2023/03/17 06:19:11;;;;;;;7.30;6.90;;;;;;;-141.22;100.00;65034.22;4954395;28;20469;-48
2023/03/17 06:21:40;;;;;;;8.00;7.50;;;;;;;-141.22;100.00;65034.22;4954796;28;20440;-49
2023/03/17 06:24:08;;;;;;;8.40;7.80;;;;;;;-141.22;100.00;65034.22;4954880;28;20457;-48
2023/03/17 06:26:37;;;;;;;8.17;7.37;;;;;;;-141.22;100.00;65034.22;4954640;28;20518;-47
2023/03/17 06:29:07;;;;;;;8.50;7.80;;;;;;;-141.22;100.00;65034.22;4953819;28;20483;-50
2023/03/17 06:31:36;;;;;;;7.77;7.37;;;;;;;-141.22;100.00;65034.22;4954295;28;20416;-54
2023/03/17 06:34:03;;;;;;;8.57;7.80;;;;;;;-141.22;100.00;65034.22;4954703;28;20479;-54
2023/03/17 06:36:32;;;;;;;8.17;7.67;;;;;;;-141.22;100.00;65034.22;4953650;28;20439;-51
2023/03/17 06:39:01;;;;;;;8.07;7.57;;;;;;;-141.22;100.00;65034.22;4953960;28;20479;-48
2023/03/17 06:41:29;;;;;;;8.53;7.93;;;;;;;-141.22;100.00;65034.22;4954548;28;20443;-50
2023/03/17 06:43:56;;;;;;;8.37;7.70;;;;;;;-141.22;100.00;65034.22;4954289;28;20456;-47
2023/03/17 06:46:24;;;;;;;8.30;7.70;;;;;;;-141.22;100.00;65034.22;4954248;28;20438;-45
2023/03/17 06:48:52;;;;;;;8.60;8.00;;;;;;;-141.22;100.00;65034.22;4951865;28;20494;-49
2023/03/17 06:51:20;;;;;;;8.20;7.80;;;;;;;-141.22;100.00;65034.22;4954169;28;20451;-45
2023/03/17 06:53:48;;;;;;;7.70;7.20;;;;;;;-141.22;100.00;65034.22;4953873;28;20945;-48
2023/03/17 06:56:17;;;;;;;7.10;6.60;;;;;;;-141.22;100.00;65034.22;4953402;28;20527;-48
2023/03/17 06:58:57;;;;;;;7.50;6.80;;;;;;;-141.22;100.00;65034.22;4953043;28;20468;-44
2023/03/17 07:01:24;;;;;;;7.57;7.17;;;;;;;-141.22;100.00;65034.22;4953668;28;20499;-46
2023/03/17 07:03:52;;;;;;;7.10;6.50;;;;;;;-141.22;100.00;65034.22;4953931;28;20809;-46
2023/03/17 07:06:22;;;;;;;8.33;7.50;;;;;;;-141.22;100.00;65034.22;4954036;28;20432;-46
2023/03/17 07:08:51;;;;;;;7.00;6.53;;;;;;;-141.22;100.00;65034.22;4953065;28;20483;-46
2023/03/17 07:11:22;;;;;;;7.20;6.70;;;;;;;-141.22;100.00;65034.22;4953761;28;20440;-46
2023/03/17 07:13:50;;;;;;;8.17;7.67;;;;;;;-141.22;100.00;65034.22;4953701;28;20530;-54
2023/03/17 07:16:19;;;;;;;8.20;7.80;;;;;;;-141.22;100.00;65034.22;4953762;28;20438;-48
2023/03/17 07:18:47;;;;;;;8.50;7.80;;;;;;;-141.22;100.00;65034.22;4950989;28;20468;-52
2023/03/17 07:21:15;;;;;;;7.80;7.40;;;;;;;-141.22;100.00;65034.22;4954078;28;20438;-50
2023/03/17 07:23:43;;;;;;;8.40;7.80;;;;;;;-141.22;100.00;65034.22;4953735;28;20438;-47
2023/03/17 07:26:10;;;;;;;8.80;8.10;;;;;;;-141.22;100.00;65034.22;4953673;28;20427;-46
2023/03/17 07:28:39;;;;;;;8.20;7.60;;;;;;;-141.22;100.00;65034.22;4953087;28;20480;-49
2023/03/17 07:31:08;;;;;;;8.00;7.47;;;;;;;-141.22;100.00;65034.22;4953621;28;20435;-51
2023/03/17 07:33:36;;;;;;;9.40;8.53;;;;;;;-141.22;100.00;65034.22;4953540;28;20534;-51
2023/03/17 07:36:05;;;;;;;8.67;7.80;;;;;;;-141.22;100.00;65034.22;4953357;28;20933;-50
2023/03/17 07:38:34;;;;;;;8.50;7.90;;;;;;;-141.22;100.00;65034.22;4952794;28;20829;-49
2023/03/17 07:41:02;;;;;;;8.27;7.40;;;;;;;-141.22;100.00;65034.22;4953158;28;20952;-50
2023/03/17 07:43:30;;;;;;;7.50;6.90;;;;;;;-141.22;100.00;65034.22;4953345;28;20451;-47
2023/03/17 07:46:00;;;;;;;7.60;7.10;;;;;;;-141.22;100.00;65034.22;4953128;28;20791;-49
2023/03/17 07:48:29;;;;;;;8.47;7.87;;;;;;;-141.22;100.00;65034.22;4951107;28;20483;-50
2023/03/17 07:50:56;;;;;;;7.20;6.80;;;;;;;-141.22;100.00;65034.22;4953385;28;20512;-47
2023/03/17 07:53:24;;;;;;;8.10;7.40;;;;;;;-141.22;100.00;65034.22;4952784;28;20439;-51
2023/03/17 07:55:51;;;;;;;9.10;7.00;;;;;;;-141.22;100.00;65034.22;4953284;28;20432;-50
2023/03/17 07:58:20;;;;;;;9.17;8.40;;;;;;;-141.22;100.00;65034.22;4952680;28;20468;-48
2023/03/17 08:00:48;;;;;;;7.87;7.37;;;;;;;-141.22;100.00;65034.22;4953428;28;20498;-45
2023/03/17 08:03:18;;;;;;;8.00;7.60;;;;;;;-141.22;100.00;65034.22;4952900;28;20440;-54
2023/03/17 08:05:52;;;;;;;8.00;7.50;;;;;;;-141.22;100.00;65034.22;4952695;28;20436;-46
2023/03/17 08:08:21;;;;;;;7.10;6.50;;;;;;;-141.22;100.00;65034.22;4952647;28;20482;-48
2023/03/17 08:10:48;;;;;;;7.57;7.03;;;;;;;-141.22;100.00;65034.22;4953300;28;20444;-53
2023/03/17 08:13:16;;;;;;;7.93;7.33;;;;;;;-141.22;100.00;65034.22;4952319;28;20443;-47
2023/03/17 08:15:44;;;;;;;7.17;6.73;;;;;;;-141.22;100.00;65034.22;4952878;28;20950;-47
2023/03/17 08:18:12;;;;;;;7.93;7.20;;;;;;;-141.22;100.00;65034.22;4931252;28;20569;-49
2023/03/17 08:20:41;;;;;;;7.77;7.17;;;;;;;-141.22;100.00;65034.22;4953157;28;20507;-45
2023/03/17 08:23:09;;;;;;;9.97;6.70;;;;;;;-141.22;100.00;65034.22;4952756;28;20431;-49
2023/03/17 08:25:37;;;;;;;8.00;7.40;;;;;;;-141.22;100.00;65034.22;4952746;28;20443;-46
2023/03/17 08:28:05;;;;;;;7.93;7.33;;;;;;;-141.22;100.00;65034.22;4951930;28;20882;-51
2023/03/17 08:30:33;;;;;;;7.60;7.10;;;;;;;-141.22;100.00;65034.22;4953085;28;20435;-46
2023/03/17 08:33:01;;;;;;;7.80;7.30;;;;;;;-141.22;100.00;65034.22;4952442;28;20435;-52
2023/03/17 08:35:30;;;;;;;7.37;6.90;;;;;;;-141.22;100.00;65034.22;4952943;28;20526;-52
2023/03/17 08:38:00;;;;;;;8.20;7.60;;;;;;;-141.22;100.00;65034.22;4952551;28;20902;-50
2023/03/17 08:40:28;;;;;;;8.00;7.50;;;;;;;-141.22;100.00;65034.22;4952943;28;20443;-52
2023/03/17 08:42:56;;;;;;;7.67;7.17;;;;;;;-141.22;100.00;65034.22;4952219;28;20910;-49
2023/03/17 08:45:25;;;;;;;7.87;7.17;;;;;;;-141.22;100.00;65034.22;4952867;28;20438;-47
2023/03/17 08:47:52;;;;;;;7.00;6.50;;;;;;;-141.22;100.00;65034.22;4944098;28;20472;-46
2023/03/17 08:50:22;;;;;;;7.00;6.53;;;;;;;-141.22;100.00;65034.22;4952975;28;21053;-51
2023/03/17 08:52:51;;;;;;;8.20;7.60;;;;;;;-141.22;100.00;65034.22;4952322;28;20440;-51
2023/03/17 08:55:20;;;;;;;8.60;7.70;;;;;;;-141.22;100.00;65034.22;4952626;28;20435;-46
2023/03/17 08:57:48;;;;;;;7.40;6.90;;;;;;;-141.22;100.00;65034.22;4952272;28;20468;-52
2023/03/17 09:00:19;;;;;;;7.30;6.90;;;;;;;-141.22;100.00;65034.22;4952632;28;20442;-48
2023/03/17 09:02:47;;;;;;;7.43;6.93;;;;;;;-141.22;100.00;65034.22;4952239;28;20434;-49
2023/03/17 09:05:16;;;;;;;7.77;7.07;;;;;;;-141.22;100.00;65034.22;4952465;28;20810;-50
2023/03/17 09:07:44;;;;;;;7.13;6.67;;;;;;;-141.22;100.00;65034.22;4951902;28;20475;-48
2023/03/17 09:10:13;;;;;;;7.90;7.30;;;;;;;-141.22;100.00;65034.22;4952390;28;20479;-49
2023/03/17 09:12:42;;;;;;;8.37;7.63;;;;;;;-141.22;100.00;65034.22;4952576;28;20450;-48
2023/03/17 09:15:12;;;;;;;8.10;7.40;;;;;;;-141.22;100.00;65034.22;4952693;28;20438;-52
2023/03/17 09:17:40;;;;;;;8.03;7.43;;;;;;;-141.22;100.00;65034.22;4953735;28;20459;-53
2023/03/17 09:20:10;;;;;;;7.40;6.90;;;;;;;-141.22;100.00;65034.22;4955812;28;20436;-51
2023/03/17 09:22:38;;;;;;;7.70;7.20;;;;;;;-141.22;100.00;65034.22;4955855;28;20435;-51
2023/03/17 09:25:06;;;;;;;7.50;7.00;;;;;;;-141.22;100.00;65034.22;4955284;28;20450;-53
2023/03/17 09:27:33;;;;;;;7.90;7.10;;;;;;;-141.22;100.00;65034.22;4955426;28;20514;-49
2023/03/17 09:30:03;;;;;;;8.13;7.57;;;;;;;-141.22;100.00;65034.22;4955734;28;20479;-52
2023/03/17 09:32:31;;;;;;;9.03;8.13;;;;;;;-141.22;100.00;65034.22;4955604;28;20451;-50
2023/03/17 09:34:58;;;;;;;10.53;9.60;;;;;;;-141.22;100.00;65034.22;4955719;28;20444;-53
2023/03/17 09:37:26;;;;;;;8.73;8.13;;;;;;;-141.22;100.00;65034.22;4955582;28;20459;-49
2023/03/17 09:39:54;;;;;;;8.60;7.90;;;;;;;-141.22;100.00;65034.22;4955927;28;20461;-50
2023/03/17 09:42:41;;;;;;;8.67;8.10;;;;;;;-141.22;100.00;65034.22;4955246;28;20491;-48
2023/03/17 09:45:23;;;;;;;10.10;9.20;;;;;;;-141.22;100.00;65034.22;4955052;28;20436;-44
2023/03/17 09:48:03;;;;;;;10.10;9.30;;;;;;;-141.22;100.00;65034.22;4952824;28;20471;-45
2023/03/17 09:50:38;;;;;;;10.70;9.53;;;;;;;-141.22;100.00;65034.22;4954447;28;20560;-47
2023/03/17 09:53:16;;;;;;;25.57;11.17;;;;;;;-141.22;100.00;65034.22;4955263;28;20553;-50
2023/03/17 09:55:46;;;;;;;11.30;10.30;;;;;;;-141.22;100.00;65034.22;4955028;28;20427;-53
2023/03/17 09:58:14;;;;;;;11.83;10.63;;;;;;;-141.22;100.00;65034.22;4954641;28;20530;-51
2023/03/17 10:00:43;;;;;;;8.33;7.83;;;;;;;-141.22;100.00;65034.22;4955336;28;20439;-46
2023/03/17 10:03:12;;;;;;;8.90;7.90;;;;;;;-141.22;100.00;65034.22;4954792;28;20471;-50
2023/03/17 10:05:40;;;;;;;9.53;8.73;;;;;;;-141.22;100.00;65034.22;4955062;28;20436;-48
2023/03/17 10:08:14;;;;;;;7.77;7.07;;;;;;;-141.22;100.00;65034.22;4954009;28;20467;-49
2023/03/17 10:11:02;;;;;;;9.30;8.50;;;;;;;-141.22;100.00;65034.22;4954904;28;20476;-48
2023/03/17 10:13:45;;;;;;;8.07;7.40;;;;;;;-141.22;100.00;65034.22;4955091;28;20442;-46
2023/03/17 10:16:18;;;;;;;8.97;8.13;;;;;;;-141.22;100.00;65034.22;4954892;28;20479;-50
2023/03/17 10:18:52;;;;;;;8.73;7.97;;;;;;;-141.22;100.00;65034.22;4952489;28;20468;-49
2023/03/17 10:21:25;;;;;;;8.87;8.17;;;;;;;-141.22;100.00;65034.22;4954980;28;20453;-47
2023/03/17 10:23:54;;;;;;;8.10;7.60;;;;;;;-141.22;100.00;65034.22;4955409;28;20444;-52
2023/03/17 10:26:29;;;;;;;8.57;8.00;;;;;;;-141.22;100.00;65034.22;4954540;28;20526;-46
2023/03/17 10:28:58;;;;;;;7.90;7.10;;;;;;;-141.22;100.00;65034.22;4953656;28;20462;-52
2023/03/17 10:31:33;;;;;;;7.63;7.13;;;;;;;-141.22;100.00;65034.22;4954599;28;20427;-51
2023/03/17 10:34:13;;;;;;;7.80;7.10;;;;;;;-141.22;100.00;65034.22;4954632;28;20442;-50
2023/03/17 10:36:43;;;;;;;7.60;7.20;;;;;;;-141.22;100.00;65034.22;4954605;28;20420;-51
2023/03/17 10:39:14;;;;;;;7.90;7.27;;;;;;;-141.22;100.00;65034.22;4954146;28;20472;-48
2023/03/17 10:41:52;;;;;;;6.37;5.87;;;;;;;-141.22;100.00;65034.22;4954720;28;20412;-49
2023/03/17 10:44:37;;;;;;;6.93;6.33;;;;;;;-141.22;100.00;65034.22;4954824;28;20420;-53
2023/03/17 10:47:19;;;;;;;8.03;7.53;;;;;;;-141.22;100.00;65034.22;4950751;28;20937;-48
2023/03/17 10:49:46;;;;;;;7.40;6.80;;;;;;;-141.22;100.00;65034.22;4953641;28;20483;-49
2023/03/17 10:52:21;;;;;;;7.60;6.90;;;;;;;-141.22;100.00;65034.22;4954192;28;20862;-45
2023/03/17 10:54:50;;;;;;;10.53;7.57;;;;;;;-141.22;100.00;65034.22;4954722;28;20850;-49
2023/03/17 10:57:18;;;;;;;7.20;6.70;;;;;;;-141.22;100.00;65034.22;4953692;28;20539;-51
2023/03/17 10:59:51;;;;;;;7.90;7.20;;;;;;;-141.22;100.00;65034.22;4953933;28;20880;-51
2023/03/17 11:02:25;;;;;;;7.70;7.20;;;;;;;-141.22;100.00;65034.22;4953497;28;20443;-47
2023/03/17 11:05:03;;;;;;;7.03;6.53;;;;;;;-141.22;100.00;65034.22;4954314;28;20428;-49
2023/03/17 11:07:37;;;;;;;7.37;6.90;;;;;;;-141.22;100.00;65034.22;4953573;28;20471;-47
2023/03/17 11:10:17;;;;;;;7.73;7.23;;;;;;;-141.22;100.00;65034.22;4953806;28;20471;-49
2023/03/17 11:12:49;;;;;;;8.57;7.87;;;;;;;-141.22;100.00;65034.22;4953439;28;20444;-47
2023/03/17 11:15:18;;;;;;;8.07;7.37;;;;;;;-141.22;100.00;65034.22;4953737;28;20921;-48
2023/03/17 11:17:57;;;;;;;8.50;7.80;;;;;;;-141.22;100.00;65034.22;4952809;28;20468;-45
2023/03/17 11:20:50;;;;;;;8.33;7.63;;;;;;;-141.22;100.00;65034.22;4953491;28;20992;-47